Check out our new PWSWeather beta!
PWSweather.com
Personal Weather Stations
Station Observations
79674
AfterstegDE 79674

AfterstegDE 79674

Lat: 47.84344, Lon: 7.92844

Elevation: 809

Station Type: Davis Vantage 2 Aktive

www.wetter-aftersteg.de

High Low Average
Temperature 50.0°F10.0°C 43.7°F6.5°C 46.7°F8.2°C
Dew Point 49.1°F9.5°C 43.5°F6.4°C 46.1°F7.8°C
Winds 8.1 mph 13.0 kmh Calm Calm 3.0 mph SE4.8 kmh SE
Wind Gusts 14.1 mph22.7 kmh -- 3.0 mph4.8 kmh
Humidity 99% 95% 98%
Pressure 30.07 in1018.3 mb 29.67 in1004.7 mb -
Precipitation 0.61 in15.5 mm - -
Hour Temp Dew Point Humidity Winds Wind Gusts Pressure Precip Precip Rate Daily Precip Total
12:02 AM 43.9°F6.6°C 43.7°F6.5°C 99% Calm Calm -- 30.08 in1018.6 mb - 0.00 in0.0 mm 0.05 in1.3 mm
12:07 AM 43.9°F6.6°C 43.7°F6.5°C 99% Calm Calm -- 30.08 in1018.6 mb - 0.00 in0.0 mm 0.05 in1.3 mm
12:12 AM 43.9°F6.6°C 43.7°F6.5°C 99% Calm Calm -- 30.08 in1018.6 mb - 0.00 in0.0 mm 0.00 in0.0 mm
12:17 AM 43.9°F6.6°C 43.7°F6.5°C 99% Calm Calm -- 30.08 in1018.6 mb - 0.00 in0.0 mm 0.00 in0.0 mm
12:22 AM 43.9°F6.6°C 43.7°F6.5°C 99% Calm Calm -- 30.08 in1018.6 mb - 0.00 in0.0 mm 0.00 in0.0 mm
12:27 AM 43.9°F6.6°C 43.7°F6.5°C 99% Calm Calm -- 30.07 in1018.3 mb - 0.00 in0.0 mm 0.00 in0.0 mm
12:32 AM 44.1°F6.7°C 43.9°F6.6°C 99% Calm Calm -- 30.07 in1018.3 mb - 0.00 in0.0 mm 0.00 in0.0 mm
12:37 AM 44.1°F6.7°C 43.9°F6.6°C 99% Calm Calm -- 30.07 in1018.3 mb - 0.00 in0.0 mm 0.00 in0.0 mm
12:42 AM 43.7°F6.5°C 43.5°F6.4°C 99% Calm Calm -- 30.07 in1018.3 mb - 0.00 in0.0 mm 0.00 in0.0 mm
12:47 AM 43.7°F6.5°C 43.5°F6.4°C 99% Calm Calm -- 30.07 in1018.3 mb - 0.00 in0.0 mm 0.00 in0.0 mm
12:52 AM 43.9°F6.6°C 43.7°F6.5°C 99% Calm Calm -- 30.07 in1018.3 mb - 0.00 in0.0 mm 0.00 in0.0 mm
12:57 AM 43.9°F6.6°C 43.7°F6.5°C 99% Calm Calm -- 30.07 in1018.3 mb - 0.00 in0.0 mm 0.00 in0.0 mm
01:02 AM 43.7°F6.5°C 43.5°F6.4°C 99% Calm Calm -- 30.07 in1018.3 mb - 0.00 in0.0 mm 0.00 in0.0 mm
01:07 AM 43.7°F6.5°C 43.5°F6.4°C 99% Calm Calm -- 30.07 in1018.3 mb - 0.00 in0.0 mm 0.00 in0.0 mm
01:12 AM 43.9°F6.6°C 43.7°F6.5°C 99% Calm Calm -- 30.06 in1017.9 mb - 0.00 in0.0 mm 0.00 in0.0 mm
01:17 AM 43.9°F6.6°C 43.7°F6.5°C 99% Calm Calm -- 30.06 in1017.9 mb - 0.00 in0.0 mm 0.00 in0.0 mm
01:22 AM 43.9°F6.6°C 43.7°F6.5°C 99% Calm Calm -- 30.06 in1017.9 mb - 0.00 in0.0 mm 0.00 in0.0 mm
01:27 AM 44.1°F6.7°C 43.9°F6.6°C 99% Calm Calm -- 30.06 in1017.9 mb - 0.00 in0.0 mm 0.00 in0.0 mm
01:32 AM 44.1°F6.7°C 43.9°F6.6°C 99% Calm Calm -- 30.06 in1017.9 mb - 0.00 in0.0 mm 0.00 in0.0 mm
01:37 AM 44.1°F6.7°C 43.9°F6.6°C 99% Calm Calm -- 30.06 in1017.9 mb - 0.00 in0.0 mm 0.00 in0.0 mm
01:42 AM 44.1°F6.7°C 43.9°F6.6°C 99% Calm Calm -- 30.06 in1017.9 mb - 0.00 in0.0 mm 0.00 in0.0 mm
01:47 AM 44.1°F6.7°C 43.9°F6.6°C 99% Calm Calm -- 30.06 in1017.9 mb - 0.00 in0.0 mm 0.00 in0.0 mm
01:52 AM 44.2°F6.8°C 44.1°F6.7°C 99% Calm Calm -- 30.06 in1017.9 mb - 0.00 in0.0 mm 0.00 in0.0 mm
01:57 AM 44.1°F6.7°C 43.9°F6.6°C 99% Calm Calm -- 30.06 in1017.9 mb - 0.00 in0.0 mm 0.00 in0.0 mm
02:02 AM 44.1°F6.7°C 43.9°F6.6°C 99% Calm Calm -- 30.06 in1017.9 mb - 0.00 in0.0 mm 0.00 in0.0 mm
02:07 AM 44.2°F6.8°C 44.1°F6.7°C 99% Calm Calm -- 30.05 in1017.6 mb - 0.00 in0.0 mm 0.00 in0.0 mm
02:12 AM 44.2°F6.8°C 44.1°F6.7°C 99% Calm Calm -- 30.05 in1017.6 mb - 0.00 in0.0 mm 0.00 in0.0 mm
02:17 AM 44.2°F6.8°C 44.1°F6.7°C 99% Calm Calm -- 30.05 in1017.6 mb - 0.00 in0.0 mm 0.00 in0.0 mm
02:22 AM 44.2°F6.8°C 44.1°F6.7°C 99% Calm Calm -- 30.05 in1017.6 mb - 0.00 in0.0 mm 0.00 in0.0 mm
02:27 AM 44.4°F6.9°C 44.2°F6.8°C 99% Calm Calm -- 30.05 in1017.6 mb - 0.00 in0.0 mm 0.00 in0.0 mm
02:32 AM 44.2°F6.8°C 44.1°F6.7°C 99% Calm Calm -- 30.05 in1017.6 mb - 0.00 in0.0 mm 0.00 in0.0 mm
02:37 AM 44.1°F6.7°C 43.9°F6.6°C 99% Calm Calm -- 30.05 in1017.6 mb - 0.00 in0.0 mm 0.00 in0.0 mm
02:42 AM 44.1°F6.7°C 43.9°F6.6°C 99% Calm Calm -- 30.05 in1017.6 mb - 0.00 in0.0 mm 0.00 in0.0 mm
02:47 AM 44.2°F6.8°C 44.1°F6.7°C 99% Calm Calm -- 30.05 in1017.6 mb - 0.00 in0.0 mm 0.00 in0.0 mm
02:52 AM 44.2°F6.8°C 44.1°F6.7°C 99% Calm Calm -- 30.04 in1017.3 mb - 0.00 in0.0 mm 0.00 in0.0 mm
02:57 AM 44.2°F6.8°C 44.1°F6.7°C 99% Calm Calm -- 30.04 in1017.3 mb - 0.00 in0.0 mm 0.00 in0.0 mm
03:02 AM 44.2°F6.8°C 44.1°F6.7°C 99% Calm Calm -- 30.04 in1017.3 mb - 0.00 in0.0 mm 0.00 in0.0 mm
03:07 AM 44.2°F6.8°C 44.1°F6.7°C 99% Calm Calm -- 30.04 in1017.3 mb - 0.00 in0.0 mm 0.00 in0.0 mm
03:12 AM 44.1°F6.7°C 43.9°F6.6°C 99% Calm Calm -- 30.04 in1017.3 mb - 0.00 in0.0 mm 0.00 in0.0 mm
03:17 AM 44.1°F6.7°C 43.9°F6.6°C 99% Calm Calm -- 30.04 in1017.3 mb - 0.00 in0.0 mm 0.00 in0.0 mm
03:22 AM 44.1°F6.7°C 43.9°F6.6°C 99% Calm Calm -- 30.04 in1017.3 mb - 0.00 in0.0 mm 0.00 in0.0 mm
03:27 AM 44.1°F6.7°C 43.9°F6.6°C 99% Calm Calm -- 30.04 in1017.3 mb - 0.00 in0.0 mm 0.00 in0.0 mm
03:32 AM 44.1°F6.7°C 43.9°F6.6°C 99% Calm Calm -- 30.04 in1017.3 mb - 0.00 in0.0 mm 0.00 in0.0 mm
03:37 AM 44.1°F6.7°C 43.9°F6.6°C 99% Calm Calm -- 30.03 in1016.9 mb - 0.00 in0.0 mm 0.00 in0.0 mm
03:42 AM 44.2°F6.8°C 44.1°F6.7°C 99% Calm Calm -- 30.04 in1017.3 mb - 0.00 in0.0 mm 0.00 in0.0 mm
03:47 AM 44.2°F6.8°C 44.1°F6.7°C 99% Calm Calm -- 30.03 in1016.9 mb - 0.00 in0.0 mm 0.00 in0.0 mm
03:52 AM 44.4°F6.9°C 44.2°F6.8°C 99% Calm Calm -- 30.03 in1016.9 mb - 0.00 in0.0 mm 0.00 in0.0 mm
03:57 AM 44.2°F6.8°C 44.1°F6.7°C 99% Calm Calm -- 30.03 in1016.9 mb - 0.00 in0.0 mm 0.00 in0.0 mm
04:02 AM 44.1°F6.7°C 43.9°F6.6°C 99% Calm Calm -- 30.03 in1016.9 mb - 0.00 in0.0 mm 0.00 in0.0 mm
04:07 AM 43.9°F6.6°C 43.7°F6.5°C 99% 0.9 mph SE1.4 kmh SE -- 30.03 in1016.9 mb - 0.00 in0.0 mm 0.00 in0.0 mm
04:12 AM 43.9°F6.6°C 43.7°F6.5°C 99% 0.9 mph SE1.4 kmh SE -- 30.03 in1016.9 mb - 0.00 in0.0 mm 0.00 in0.0 mm
04:17 AM 43.9°F6.6°C 43.7°F6.5°C 99% Calm Calm -- 30.03 in1016.9 mb - 0.00 in0.0 mm 0.00 in0.0 mm
04:22 AM 43.9°F6.6°C 43.7°F6.5°C 99% Calm Calm -- 30.03 in1016.9 mb - 0.00 in0.0 mm 0.00 in0.0 mm
04:27 AM 43.7°F6.5°C 43.5°F6.4°C 99% Calm Calm -- 30.03 in1016.9 mb - 0.00 in0.0 mm 0.00 in0.0 mm
04:32 AM 43.9°F6.6°C 43.7°F6.5°C 99% Calm Calm -- 30.03 in1016.9 mb - 0.00 in0.0 mm 0.01 in0.3 mm
04:37 AM 43.9°F6.6°C 43.7°F6.5°C 99% Calm Calm -- 30.03 in1016.9 mb - 0.00 in0.0 mm 0.01 in0.3 mm
04:42 AM 43.9°F6.6°C 43.7°F6.5°C 99% Calm Calm -- 30.03 in1016.9 mb - 0.00 in0.0 mm 0.01 in0.3 mm
04:47 AM 44.1°F6.7°C 43.9°F6.6°C 99% Calm Calm -- 30.02 in1016.6 mb - 0.00 in0.0 mm 0.01 in0.3 mm
04:52 AM 44.1°F6.7°C 43.9°F6.6°C 99% Calm Calm -- 30.02 in1016.6 mb - 0.00 in0.0 mm 0.01 in0.3 mm
04:57 AM 44.1°F6.7°C 43.9°F6.6°C 99% Calm Calm -- 30.02 in1016.6 mb - 0.00 in0.0 mm 0.01 in0.3 mm
05:02 AM 44.1°F6.7°C 43.9°F6.6°C 99% Calm Calm -- 30.02 in1016.6 mb - 0.00 in0.0 mm 0.01 in0.3 mm
05:07 AM 44.1°F6.7°C 43.9°F6.6°C 99% Calm Calm -- 30.02 in1016.6 mb - 0.00 in0.0 mm 0.01 in0.3 mm
05:12 AM 44.2°F6.8°C 44.1°F6.7°C 99% Calm Calm -- 30.02 in1016.6 mb - 0.00 in0.0 mm 0.01 in0.3 mm
05:17 AM 44.2°F6.8°C 44.1°F6.7°C 99% Calm Calm -- 30.02 in1016.6 mb - 0.00 in0.0 mm 0.01 in0.3 mm
05:22 AM 44.4°F6.9°C 44.2°F6.8°C 99% Calm Calm -- 30.02 in1016.6 mb - 0.00 in0.0 mm 0.01 in0.3 mm
05:27 AM 44.2°F6.8°C 44.1°F6.7°C 99% Calm Calm -- 30.02 in1016.6 mb - 0.00 in0.0 mm 0.01 in0.3 mm
05:32 AM 44.2°F6.8°C 44.1°F6.7°C 99% Calm Calm -- 30.02 in1016.6 mb - 0.00 in0.0 mm 0.01 in0.3 mm
05:37 AM 44.1°F6.7°C 43.9°F6.6°C 99% Calm Calm -- 30.01 in1016.3 mb - 0.00 in0.0 mm 0.01 in0.3 mm
05:42 AM 44.1°F6.7°C 43.9°F6.6°C 99% Calm Calm -- 30.01 in1016.3 mb - 0.00 in0.0 mm 0.01 in0.3 mm
05:47 AM 43.9°F6.6°C 43.7°F6.5°C 99% Calm Calm -- 30.01 in1016.3 mb - 0.00 in0.0 mm 0.01 in0.3 mm
05:52 AM 43.9°F6.6°C 43.7°F6.5°C 99% Calm Calm -- 30.01 in1016.3 mb - 0.00 in0.0 mm 0.01 in0.3 mm
05:57 AM 44.1°F6.7°C 43.9°F6.6°C 99% Calm Calm -- 30.01 in1016.3 mb - 0.00 in0.0 mm 0.01 in0.3 mm
06:02 AM 44.1°F6.7°C 43.9°F6.6°C 99% Calm Calm -- 30.01 in1016.3 mb - 0.00 in0.0 mm 0.01 in0.3 mm
06:07 AM 44.1°F6.7°C 43.9°F6.6°C 99% Calm Calm -- 30.00 in1015.9 mb - 0.00 in0.0 mm 0.01 in0.3 mm
06:12 AM 44.2°F6.8°C 44.1°F6.7°C 99% Calm Calm -- 30.00 in1015.9 mb - 0.00 in0.0 mm 0.01 in0.3 mm
06:17 AM 44.4°F6.9°C 44.2°F6.8°C 99% Calm Calm -- 30.00 in1015.9 mb - 0.00 in0.0 mm 0.01 in0.3 mm
06:22 AM 44.4°F6.9°C 44.2°F6.8°C 99% Calm Calm -- 30.00 in1015.9 mb - 0.00 in0.0 mm 0.01 in0.3 mm
06:27 AM 44.4°F6.9°C 44.2°F6.8°C 99% Calm Calm -- 30.00 in1015.9 mb - 0.00 in0.0 mm 0.01 in0.3 mm
06:32 AM 44.4°F6.9°C 44.2°F6.8°C 99% Calm Calm -- 29.99 in1015.6 mb - 0.00 in0.0 mm 0.01 in0.3 mm
06:37 AM 44.4°F6.9°C 44.2°F6.8°C 99% Calm Calm -- 30.00 in1015.9 mb - 0.00 in0.0 mm 0.01 in0.3 mm
06:42 AM 44.8°F7.1°C 44.6°F7.0°C 99% Calm Calm -- 30.00 in1015.9 mb - 0.00 in0.0 mm 0.01 in0.3 mm
06:47 AM 44.8°F7.1°C 44.6°F7.0°C 99% Calm Calm -- 30.00 in1015.9 mb - 0.00 in0.0 mm 0.01 in0.3 mm
06:52 AM 45.0°F7.2°C 44.8°F7.1°C 99% Calm Calm -- 30.00 in1015.9 mb - 0.00 in0.0 mm 0.01 in0.3 mm
06:57 AM 45.0°F7.2°C 44.8°F7.1°C 99% Calm Calm -- 30.00 in1015.9 mb - 0.00 in0.0 mm 0.01 in0.3 mm
07:02 AM 45.0°F7.2°C 44.8°F7.1°C 99% Calm Calm -- 30.00 in1015.9 mb - 0.00 in0.0 mm 0.01 in0.3 mm
07:07 AM 45.1°F7.3°C 45.0°F7.2°C 99% Calm Calm -- 30.00 in1015.9 mb - 0.00 in0.0 mm 0.01 in0.3 mm
07:12 AM 45.1°F7.3°C 45.0°F7.2°C 99% Calm Calm -- 30.00 in1015.9 mb - 0.00 in0.0 mm 0.01 in0.3 mm
07:17 AM 44.8°F7.1°C 44.6°F7.0°C 99% Calm Calm -- 30.00 in1015.9 mb - 0.00 in0.0 mm 0.01 in0.3 mm
07:22 AM 44.6°F7.0°C 44.4°F6.9°C 99% Calm Calm -- 30.00 in1015.9 mb - 0.00 in0.0 mm 0.01 in0.3 mm
07:27 AM 44.8°F7.1°C 44.6°F7.0°C 99% Calm Calm -- 30.01 in1016.3 mb - 0.00 in0.0 mm 0.01 in0.3 mm
07:32 AM 45.1°F7.3°C 45.0°F7.2°C 99% 0.9 mph S1.4 kmh S -- 30.01 in1016.3 mb - 0.00 in0.0 mm 0.01 in0.3 mm
07:37 AM 44.8°F7.1°C 44.6°F7.0°C 99% 0.9 mph S1.4 kmh S -- 30.01 in1016.3 mb - 0.00 in0.0 mm 0.01 in0.3 mm
07:42 AM 44.8°F7.1°C 44.6°F7.0°C 99% Calm Calm -- 30.01 in1016.3 mb - 0.00 in0.0 mm 0.01 in0.3 mm
07:47 AM 44.8°F7.1°C 44.6°F7.0°C 99% Calm Calm -- 30.01 in1016.3 mb - 0.00 in0.0 mm 0.01 in0.3 mm
07:52 AM 45.0°F7.2°C 44.8°F7.1°C 99% Calm Calm -- 30.01 in1016.3 mb - 0.00 in0.0 mm 0.01 in0.3 mm
07:57 AM 45.0°F7.2°C 44.8°F7.1°C 99% Calm Calm -- 30.01 in1016.3 mb - 0.00 in0.0 mm 0.02 in0.5 mm
08:02 AM 45.1°F7.3°C 45.0°F7.2°C 99% Calm Calm -- 30.00 in1015.9 mb - 0.00 in0.0 mm 0.02 in0.5 mm
08:07 AM 45.3°F7.4°C 45.1°F7.3°C 99% Calm Calm -- 30.01 in1016.3 mb - 0.00 in0.0 mm 0.02 in0.5 mm
08:12 AM 45.9°F7.7°C 45.7°F7.6°C 99% Calm Calm -- 30.00 in1015.9 mb - 0.00 in0.0 mm 0.02 in0.5 mm
08:17 AM 46.0°F7.8°C 45.9°F7.7°C 99% 0.9 mph SE1.4 kmh SE 0.9 mph1.4 kmh 30.00 in1015.9 mb - 0.00 in0.0 mm 0.02 in0.5 mm
08:22 AM 46.2°F7.9°C 46.0°F7.8°C 99% 0.9 mph SE1.4 kmh SE 2.9 mph4.7 kmh 30.00 in1015.9 mb - 0.00 in0.0 mm 0.02 in0.5 mm
08:27 AM 46.2°F7.9°C 46.0°F7.8°C 99% 2.0 mph SE3.2 kmh SE 2.9 mph4.7 kmh 30.00 in1015.9 mb - 0.00 in0.0 mm 0.02 in0.5 mm
08:32 AM 46.2°F7.9°C 46.0°F7.8°C 99% 2.9 mph SE4.7 kmh SE -- 30.00 in1015.9 mb - 0.00 in0.0 mm 0.02 in0.5 mm
08:37 AM 46.2°F7.9°C 46.0°F7.8°C 99% 2.0 mph SSE3.2 kmh SSE 2.0 mph3.2 kmh 30.00 in1015.9 mb - 0.00 in0.0 mm 0.02 in0.5 mm
08:42 AM 46.2°F7.9°C 46.0°F7.8°C 99% 2.0 mph SE3.2 kmh SE 2.9 mph4.7 kmh 29.99 in1015.6 mb - 0.00 in0.0 mm 0.02 in0.5 mm
08:47 AM 46.2°F7.9°C 46.0°F7.8°C 99% 2.9 mph E4.7 kmh E 4.0 mph6.4 kmh 29.99 in1015.6 mb - 0.00 in0.0 mm 0.02 in0.5 mm
08:52 AM 46.2°F7.9°C 46.0°F7.8°C 99% 4.0 mph S6.4 kmh S 2.9 mph4.7 kmh 29.99 in1015.6 mb - 0.00 in0.0 mm 0.02 in0.5 mm
08:57 AM 46.2°F7.9°C 46.0°F7.8°C 99% 4.0 mph SE6.4 kmh SE -- 29.99 in1015.6 mb - 0.00 in0.0 mm 0.02 in0.5 mm
09:02 AM 46.2°F7.9°C 46.0°F7.8°C 99% 4.0 mph SE6.4 kmh SE 2.0 mph3.2 kmh 29.99 in1015.6 mb - 0.00 in0.0 mm 0.02 in0.5 mm
09:07 AM 46.4°F8.0°C 46.2°F7.9°C 99% 4.0 mph SSE6.4 kmh SSE 2.9 mph4.7 kmh 29.99 in1015.6 mb - 0.00 in0.0 mm 0.02 in0.5 mm
09:12 AM 46.6°F8.1°C 46.4°F8.0°C 99% 2.9 mph SE4.7 kmh SE 0.9 mph1.4 kmh 29.99 in1015.6 mb - 0.00 in0.0 mm 0.02 in0.5 mm
09:17 AM 46.6°F8.1°C 46.4°F8.0°C 99% 2.9 mph SE4.7 kmh SE 6.9 mph11.1 kmh 29.99 in1015.6 mb - 0.00 in0.0 mm 0.02 in0.5 mm
09:22 AM 46.4°F8.0°C 46.2°F7.9°C 99% 4.9 mph SE7.9 kmh SE 2.9 mph4.7 kmh 29.99 in1015.6 mb - 0.00 in0.0 mm 0.02 in0.5 mm
09:27 AM 46.4°F8.0°C 46.2°F7.9°C 99% 4.0 mph ESE6.4 kmh ESE 2.0 mph3.2 kmh 29.99 in1015.6 mb - 0.00 in0.0 mm 0.02 in0.5 mm
09:32 AM 46.4°F8.0°C 46.2°F7.9°C 99% 2.9 mph SE4.7 kmh SE 6.0 mph9.7 kmh 29.99 in1015.6 mb - 0.00 in0.0 mm 0.02 in0.5 mm
09:37 AM 46.4°F8.0°C 46.2°F7.9°C 99% 4.9 mph SE7.9 kmh SE 4.9 mph7.9 kmh 29.98 in1015.2 mb - 0.00 in0.0 mm 0.02 in0.5 mm
09:42 AM 46.6°F8.1°C 46.4°F8.0°C 99% 4.0 mph SE6.4 kmh SE 2.9 mph4.7 kmh 29.98 in1015.2 mb - 0.00 in0.0 mm 0.02 in0.5 mm
09:47 AM 46.6°F8.1°C 46.4°F8.0°C 99% 2.9 mph S4.7 kmh S -- 29.98 in1015.2 mb - 0.00 in0.0 mm 0.02 in0.5 mm
09:52 AM 46.6°F8.1°C 46.4°F8.0°C 99% 4.0 mph SE6.4 kmh SE 2.0 mph3.2 kmh 29.97 in1014.9 mb - 0.00 in0.0 mm 0.02 in0.5 mm
09:57 AM 46.6°F8.1°C 46.4°F8.0°C 99% 4.0 mph ESE6.4 kmh ESE 8.1 mph13.0 kmh 29.97 in1014.9 mb - 0.00 in0.0 mm 0.02 in0.5 mm
10:02 AM 46.6°F8.1°C 46.4°F8.0°C 99% 4.0 mph SSE6.4 kmh SSE 4.9 mph7.9 kmh 29.97 in1014.9 mb - 0.00 in0.0 mm 0.02 in0.5 mm
10:07 AM 46.6°F8.1°C 46.4°F8.0°C 99% 6.0 mph SE9.7 kmh SE 10.1 mph16.3 kmh 29.97 in1014.9 mb - 0.00 in0.0 mm 0.02 in0.5 mm
10:12 AM 46.6°F8.1°C 46.4°F8.0°C 99% 6.0 mph SE9.7 kmh SE 2.9 mph4.7 kmh 29.97 in1014.9 mb - 0.00 in0.0 mm 0.02 in0.5 mm
10:17 AM 46.6°F8.1°C 46.4°F8.0°C 99% 6.0 mph ESE9.7 kmh ESE 6.9 mph11.1 kmh 29.97 in1014.9 mb - 0.00 in0.0 mm 0.02 in0.5 mm
10:22 AM 46.6°F8.1°C 46.4°F8.0°C 99% 4.9 mph SE7.9 kmh SE 6.0 mph9.7 kmh 29.97 in1014.9 mb - 0.00 in0.0 mm 0.02 in0.5 mm
10:27 AM 46.6°F8.1°C 46.4°F8.0°C 99% 4.9 mph SE7.9 kmh SE 4.0 mph6.4 kmh 29.96 in1014.6 mb - 0.00 in0.0 mm 0.02 in0.5 mm
10:32 AM 46.6°F8.1°C 46.4°F8.0°C 99% 4.9 mph ESE7.9 kmh ESE 4.9 mph7.9 kmh 29.96 in1014.6 mb - 0.00 in0.0 mm 0.02 in0.5 mm
10:37 AM 46.8°F8.2°C 46.6°F8.1°C 99% 4.9 mph SE7.9 kmh SE 8.1 mph13.0 kmh 29.97 in1014.9 mb - 0.00 in0.0 mm 0.02 in0.5 mm
10:42 AM 46.8°F8.2°C 46.6°F8.1°C 99% 4.0 mph SE6.4 kmh SE 6.0 mph9.7 kmh 29.96 in1014.6 mb - 0.00 in0.0 mm 0.02 in0.5 mm
10:47 AM 46.8°F8.2°C 46.6°F8.1°C 99% 4.9 mph SSE7.9 kmh SSE 6.0 mph9.7 kmh 29.96 in1014.6 mb - 0.00 in0.0 mm 0.02 in0.5 mm
10:52 AM 46.8°F8.2°C 46.6°F8.1°C 99% 4.9 mph SSE7.9 kmh SSE 4.0 mph6.4 kmh 29.96 in1014.6 mb - 0.00 in0.0 mm 0.02 in0.5 mm
10:57 AM 46.8°F8.2°C 46.6°F8.1°C 99% 4.0 mph ESE6.4 kmh ESE 4.9 mph7.9 kmh 29.96 in1014.6 mb - 0.00 in0.0 mm 0.02 in0.5 mm
11:02 AM 46.8°F8.2°C 46.6°F8.1°C 99% 4.9 mph S7.9 kmh S 2.9 mph4.7 kmh 29.96 in1014.6 mb - 0.00 in0.0 mm 0.02 in0.5 mm
11:07 AM 46.8°F8.2°C 46.6°F8.1°C 99% 6.0 mph ESE9.7 kmh ESE 4.0 mph6.4 kmh 29.96 in1014.6 mb - 0.00 in0.0 mm 0.02 in0.5 mm
11:12 AM 46.8°F8.2°C 46.6°F8.1°C 99% 4.9 mph SSW7.9 kmh SSW -- 29.96 in1014.6 mb - 0.00 in0.0 mm 0.02 in0.5 mm
11:17 AM 46.9°F8.3°C 46.8°F8.2°C 99% 4.0 mph SE6.4 kmh SE 2.0 mph3.2 kmh 29.96 in1014.6 mb - 0.00 in0.0 mm 0.02 in0.5 mm
11:22 AM 46.9°F8.3°C 46.8°F8.2°C 99% 4.0 mph SE6.4 kmh SE 10.1 mph16.3 kmh 29.96 in1014.6 mb - 0.00 in0.0 mm 0.02 in0.5 mm
11:28 AM 47.1°F8.4°C 46.9°F8.3°C 99% 4.9 mph SE7.9 kmh SE 6.9 mph11.1 kmh 29.95 in1014.2 mb - 0.00 in0.0 mm 0.02 in0.5 mm
11:32 AM 47.3°F8.5°C 47.1°F8.4°C 99% 6.0 mph SE9.7 kmh SE 4.0 mph6.4 kmh 29.95 in1014.2 mb - 0.00 in0.0 mm 0.02 in0.5 mm
11:37 AM 47.5°F8.6°C 47.3°F8.5°C 99% 4.9 mph SE7.9 kmh SE 6.0 mph9.7 kmh 29.95 in1014.2 mb - 0.00 in0.0 mm 0.02 in0.5 mm
11:42 AM 47.5°F8.6°C 47.3°F8.5°C 99% 4.9 mph SSE7.9 kmh SSE 4.0 mph6.4 kmh 29.94 in1013.9 mb - 0.00 in0.0 mm 0.02 in0.5 mm
11:47 AM 47.5°F8.6°C 47.3°F8.5°C 99% 6.0 mph SE9.7 kmh SE 6.9 mph11.1 kmh 29.94 in1013.9 mb - 0.00 in0.0 mm 0.02 in0.5 mm
11:52 AM 47.7°F8.7°C 47.1°F8.4°C 98% 4.9 mph SE7.9 kmh SE 11.0 mph17.7 kmh 29.94 in1013.9 mb - 0.00 in0.0 mm 0.02 in0.5 mm
11:57 AM 47.7°F8.7°C 47.1°F8.4°C 98% 6.0 mph E9.7 kmh E 2.9 mph4.7 kmh 29.94 in1013.9 mb - 0.00 in0.0 mm 0.02 in0.5 mm
12:02 PM 47.7°F8.7°C 47.1°F8.4°C 98% 6.0 mph SE9.7 kmh SE 10.1 mph16.3 kmh 29.93 in1013.5 mb - 0.00 in0.0 mm 0.02 in0.5 mm
12:07 PM 47.7°F8.7°C 47.1°F8.4°C 98% 6.0 mph SE9.7 kmh SE 2.9 mph4.7 kmh 29.93 in1013.5 mb - 0.00 in0.0 mm 0.02 in0.5 mm
12:12 PM 47.8°F8.8°C 47.3°F8.5°C 98% 6.0 mph SE9.7 kmh SE 6.9 mph11.1 kmh 29.93 in1013.5 mb - 0.00 in0.0 mm 0.02 in0.5 mm
12:17 PM 47.8°F8.8°C 46.9°F8.3°C 97% 4.9 mph SE7.9 kmh SE 6.0 mph9.7 kmh 29.93 in1013.5 mb - 0.00 in0.0 mm 0.02 in0.5 mm
12:22 PM 47.8°F8.8°C 46.9°F8.3°C 97% 6.0 mph SE9.7 kmh SE 6.0 mph9.7 kmh 29.93 in1013.5 mb - 0.00 in0.0 mm 0.02 in0.5 mm
12:27 PM 47.8°F8.8°C 46.9°F8.3°C 97% 6.0 mph SE9.7 kmh SE 4.0 mph6.4 kmh 29.92 in1013.2 mb - 0.00 in0.0 mm 0.02 in0.5 mm
12:32 PM 47.8°F8.8°C 46.9°F8.3°C 97% 4.9 mph SE7.9 kmh SE 4.0 mph6.4 kmh 29.92 in1013.2 mb - 0.00 in0.0 mm 0.02 in0.5 mm
12:37 PM 48.0°F8.9°C 46.9°F8.3°C 96% 4.9 mph SE7.9 kmh SE 4.0 mph6.4 kmh 29.92 in1013.2 mb - 0.00 in0.0 mm 0.02 in0.5 mm
12:42 PM 48.0°F8.9°C 46.9°F8.3°C 96% 4.9 mph SE7.9 kmh SE 4.9 mph7.9 kmh 29.91 in1012.9 mb - 0.00 in0.0 mm 0.02 in0.5 mm
12:47 PM 48.0°F8.9°C 46.9°F8.3°C 96% 4.9 mph E7.9 kmh E 6.0 mph9.7 kmh 29.91 in1012.9 mb - 0.00 in0.0 mm 0.02 in0.5 mm
12:57 PM 48.0°F8.9°C 46.6°F8.1°C 95% 6.0 mph SE9.7 kmh SE 8.1 mph13.0 kmh 29.91 in1012.9 mb - 0.00 in0.0 mm 0.02 in0.5 mm
01:02 PM 47.8°F8.8°C 46.4°F8.0°C 95% 6.0 mph E9.7 kmh E 2.0 mph3.2 kmh 29.91 in1012.9 mb - 0.00 in0.0 mm 0.02 in0.5 mm
01:07 PM 48.0°F8.9°C 46.6°F8.1°C 95% 6.0 mph ESE9.7 kmh ESE 4.9 mph7.9 kmh 29.91 in1012.9 mb - 0.00 in0.0 mm 0.02 in0.5 mm
01:12 PM 47.8°F8.8°C 46.4°F8.0°C 95% 4.9 mph SSE7.9 kmh SSE 2.9 mph4.7 kmh 29.90 in1012.5 mb - 0.00 in0.0 mm 0.02 in0.5 mm
01:17 PM 47.8°F8.8°C 46.4°F8.0°C 95% 4.9 mph SE7.9 kmh SE 6.9 mph11.1 kmh 29.90 in1012.5 mb - 0.00 in0.0 mm 0.02 in0.5 mm
01:22 PM 47.7°F8.7°C 46.2°F7.9°C 95% 6.0 mph SSE9.7 kmh SSE 2.9 mph4.7 kmh 29.89 in1012.2 mb - 0.06 in1.5 mm 0.03 in0.8 mm
01:27 PM 47.7°F8.7°C 46.2°F7.9°C 95% 6.0 mph E9.7 kmh E 6.9 mph11.1 kmh 29.89 in1012.2 mb - 0.06 in1.5 mm 0.04 in1.0 mm
01:32 PM 47.8°F8.8°C 46.4°F8.0°C 95% 6.0 mph E9.7 kmh E 14.1 mph22.7 kmh 29.88 in1011.9 mb - 0.06 in1.5 mm 0.04 in1.0 mm
01:37 PM 47.7°F8.7°C 46.2°F7.9°C 95% 8.1 mph SE13.0 kmh SE 6.0 mph9.7 kmh 29.88 in1011.9 mb - 0.07 in1.8 mm 0.05 in1.3 mm
01:42 PM 47.7°F8.7°C 46.2°F7.9°C 95% 6.9 mph SE11.1 kmh SE 4.9 mph7.9 kmh 29.88 in1011.9 mb - 0.12 in3.0 mm 0.06 in1.5 mm
01:47 PM 47.7°F8.7°C 46.2°F7.9°C 95% 6.0 mph SE9.7 kmh SE 6.9 mph11.1 kmh 29.87 in1011.5 mb - 0.12 in3.0 mm 0.06 in1.5 mm
01:52 PM 47.5°F8.6°C 46.0°F7.8°C 95% 6.9 mph SSE11.1 kmh SSE 6.9 mph11.1 kmh 29.88 in1011.9 mb - 0.12 in3.0 mm 0.08 in2.0 mm
01:57 PM 47.5°F8.6°C 46.0°F7.8°C 95% 6.0 mph SE9.7 kmh SE 6.0 mph9.7 kmh 29.87 in1011.5 mb - 0.09 in2.3 mm 0.09 in2.3 mm
02:02 PM 47.5°F8.6°C 46.0°F7.8°C 95% 6.9 mph SE11.1 kmh SE 8.9 mph14.3 kmh 29.87 in1011.5 mb - 0.09 in2.3 mm 0.09 in2.3 mm
02:07 PM 47.5°F8.6°C 46.0°F7.8°C 95% 8.1 mph SSE13.0 kmh SSE 4.9 mph7.9 kmh 29.86 in1011.2 mb - 0.07 in1.8 mm 0.09 in2.3 mm
02:12 PM 47.7°F8.7°C 46.2°F7.9°C 95% 6.9 mph ESE11.1 kmh ESE 6.9 mph11.1 kmh 29.86 in1011.2 mb - 0.08 in2.0 mm 0.10 in2.5 mm
02:17 PM 47.5°F8.6°C 46.0°F7.8°C 95% 6.0 mph NE9.7 kmh NE 6.9 mph11.1 kmh 29.86 in1011.2 mb - 0.08 in2.0 mm 0.11 in2.8 mm
02:22 PM 47.7°F8.7°C 46.2°F7.9°C 95% 8.1 mph E13.0 kmh E 8.1 mph13.0 kmh 29.86 in1011.2 mb - 0.13 in3.3 mm 0.12 in3.0 mm
02:32 PM 47.5°F8.6°C 46.4°F8.0°C 96% 4.9 mph E7.9 kmh E 6.9 mph11.1 kmh 29.85 in1010.8 mb - 0.13 in3.3 mm 0.13 in3.3 mm
02:37 PM 47.5°F8.6°C 46.4°F8.0°C 96% 4.9 mph SE7.9 kmh SE 6.0 mph9.7 kmh 29.85 in1010.8 mb - 0.10 in2.5 mm 0.15 in3.8 mm
02:42 PM 47.5°F8.6°C 46.4°F8.0°C 96% 6.0 mph ESE9.7 kmh ESE 8.1 mph13.0 kmh 29.85 in1010.8 mb - 0.11 in2.8 mm 0.16 in4.1 mm
02:47 PM 47.3°F8.5°C 46.2°F7.9°C 96% 6.9 mph E11.1 kmh E 6.9 mph11.1 kmh 29.85 in1010.8 mb - 0.12 in3.0 mm 0.16 in4.1 mm
02:52 PM 47.3°F8.5°C 46.2°F7.9°C 96% 6.9 mph SSE11.1 kmh SSE 4.0 mph6.4 kmh 29.85 in1010.8 mb - 0.09 in2.3 mm 0.17 in4.3 mm
02:57 PM 47.3°F8.5°C 46.2°F7.9°C 96% 4.9 mph ESE7.9 kmh ESE 4.0 mph6.4 kmh 29.84 in1010.5 mb - 0.09 in2.3 mm 0.18 in4.6 mm
03:02 PM 47.5°F8.6°C 46.4°F8.0°C 96% 4.0 mph SE6.4 kmh SE 2.9 mph4.7 kmh 29.84 in1010.5 mb - 0.06 in1.5 mm 0.18 in4.6 mm
03:07 PM 47.5°F8.6°C 46.4°F8.0°C 96% 4.0 mph SE6.4 kmh SE 4.9 mph7.9 kmh 29.83 in1010.2 mb - 0.06 in1.5 mm 0.19 in4.8 mm
03:12 PM 47.5°F8.6°C 46.4°F8.0°C 96% 4.0 mph ESE6.4 kmh ESE 6.9 mph11.1 kmh 29.84 in1010.5 mb - 0.04 in1.0 mm 0.19 in4.8 mm
03:17 PM 47.5°F8.6°C 46.4°F8.0°C 96% 4.9 mph SE7.9 kmh SE 6.0 mph9.7 kmh 29.83 in1010.2 mb - 0.03 in0.8 mm 0.19 in4.8 mm
03:22 PM 47.5°F8.6°C 46.8°F8.2°C 97% 4.9 mph ESE7.9 kmh ESE 4.9 mph7.9 kmh 29.83 in1010.2 mb - 0.03 in0.8 mm 0.20 in5.1 mm
03:27 PM 47.7°F8.7°C 46.9°F8.3°C 97% 4.0 mph SE6.4 kmh SE 6.9 mph11.1 kmh 29.82 in1009.8 mb - 0.03 in0.8 mm 0.20 in5.1 mm
03:32 PM 47.7°F8.7°C 46.9°F8.3°C 97% 4.0 mph E6.4 kmh E -- 29.82 in1009.8 mb - 0.00 in0.0 mm 0.20 in5.1 mm
03:37 PM 47.8°F8.8°C 46.9°F8.3°C 97% 2.0 mph ESE3.2 kmh ESE 2.9 mph4.7 kmh 29.82 in1009.8 mb - 0.00 in0.0 mm 0.20 in5.1 mm
03:42 PM 47.8°F8.8°C 46.9°F8.3°C 97% 2.0 mph SE3.2 kmh SE -- 29.81 in1009.5 mb - 0.00 in0.0 mm 0.20 in5.1 mm
03:47 PM 47.8°F8.8°C 46.9°F8.3°C 97% 4.0 mph ESE6.4 kmh ESE 4.9 mph7.9 kmh 29.81 in1009.5 mb - 0.00 in0.0 mm 0.20 in5.1 mm
03:52 PM 48.0°F8.9°C 46.9°F8.3°C 96% 6.0 mph ESE9.7 kmh ESE 4.0 mph6.4 kmh 29.81 in1009.5 mb - 0.00 in0.0 mm 0.20 in5.1 mm
03:57 PM 48.0°F8.9°C 46.9°F8.3°C 96% 4.9 mph E7.9 kmh E 10.1 mph16.3 kmh 29.81 in1009.5 mb - 0.00 in0.0 mm 0.21 in5.3 mm
04:02 PM 48.0°F8.9°C 46.9°F8.3°C 96% 4.0 mph E6.4 kmh E 6.0 mph9.7 kmh 29.81 in1009.5 mb - 0.00 in0.0 mm 0.21 in5.3 mm
04:07 PM 48.0°F8.9°C 46.9°F8.3°C 96% 4.9 mph E7.9 kmh E 0.9 mph1.4 kmh 29.80 in1009.1 mb - 0.00 in0.0 mm 0.21 in5.3 mm
04:12 PM 48.0°F8.9°C 46.9°F8.3°C 96% 6.0 mph E9.7 kmh E -- 29.80 in1009.1 mb - 0.00 in0.0 mm 0.22 in5.6 mm
04:17 PM 48.0°F8.9°C 46.9°F8.3°C 96% 4.0 mph E6.4 kmh E -- 29.80 in1009.1 mb - 0.08 in2.0 mm 0.22 in5.6 mm
04:22 PM 48.2°F9.0°C 47.1°F8.4°C 96% 4.0 mph E6.4 kmh E 4.9 mph7.9 kmh 29.80 in1009.1 mb - 0.09 in2.3 mm 0.23 in5.8 mm
04:27 PM 48.2°F9.0°C 47.1°F8.4°C 96% 4.0 mph E6.4 kmh E 2.9 mph4.7 kmh 29.80 in1009.1 mb - 0.09 in2.3 mm 0.24 in6.1 mm
04:32 PM 48.2°F9.0°C 47.1°F8.4°C 96% 4.9 mph NE7.9 kmh NE 4.0 mph6.4 kmh 29.79 in1008.8 mb - 0.07 in1.8 mm 0.24 in6.1 mm
04:37 PM 48.2°F9.0°C 47.1°F8.4°C 96% 6.9 mph SE11.1 kmh SE 4.0 mph6.4 kmh 29.79 in1008.8 mb - 0.07 in1.8 mm 0.25 in6.4 mm
04:47 PM 48.2°F9.0°C 47.1°F8.4°C 96% 4.0 mph E6.4 kmh E 10.1 mph16.3 kmh 29.78 in1008.5 mb - 0.03 in0.8 mm 0.25 in6.4 mm
04:52 PM 48.2°F9.0°C 47.1°F8.4°C 96% 4.9 mph E7.9 kmh E 4.9 mph7.9 kmh 29.78 in1008.5 mb - 0.00 in0.0 mm 0.25 in6.4 mm
04:57 PM 48.2°F9.0°C 47.1°F8.4°C 96% 4.9 mph SE7.9 kmh SE 4.9 mph7.9 kmh 29.78 in1008.5 mb - 0.00 in0.0 mm 0.26 in6.6 mm
05:02 PM 48.2°F9.0°C 46.8°F8.2°C 95% 4.0 mph E6.4 kmh E 2.0 mph3.2 kmh 29.78 in1008.5 mb - 0.00 in0.0 mm 0.26 in6.6 mm
05:07 PM 48.2°F9.0°C 46.8°F8.2°C 95% 2.9 mph E4.7 kmh E 0.9 mph1.4 kmh 29.78 in1008.5 mb - 0.00 in0.0 mm 0.26 in6.6 mm
05:12 PM 48.2°F9.0°C 47.1°F8.4°C 96% 2.0 mph E3.2 kmh E 2.9 mph4.7 kmh 29.78 in1008.5 mb - 0.00 in0.0 mm 0.26 in6.6 mm
05:17 PM 48.0°F8.9°C 46.9°F8.3°C 96% 2.0 mph E3.2 kmh E -- 29.78 in1008.5 mb - 0.00 in0.0 mm 0.26 in6.6 mm
05:22 PM 48.0°F8.9°C 46.9°F8.3°C 96% 0.9 mph ESE1.4 kmh ESE -- 29.78 in1008.5 mb - 0.00 in0.0 mm 0.26 in6.6 mm
05:27 PM 48.0°F8.9°C 46.9°F8.3°C 96% Calm Calm -- 29.78 in1008.5 mb - 0.00 in0.0 mm 0.26 in6.6 mm
05:32 PM 48.0°F8.9°C 46.9°F8.3°C 96% 0.9 mph SSE1.4 kmh SSE -- 29.78 in1008.5 mb - 0.00 in0.0 mm 0.26 in6.6 mm
05:37 PM 48.0°F8.9°C 46.9°F8.3°C 96% 0.9 mph S1.4 kmh S -- 29.78 in1008.5 mb - 0.00 in0.0 mm 0.26 in6.6 mm
05:42 PM 47.8°F8.8°C 46.8°F8.2°C 96% Calm Calm -- 29.78 in1008.5 mb - 0.00 in0.0 mm 0.26 in6.6 mm
05:47 PM 47.8°F8.8°C 46.8°F8.2°C 96% Calm Calm -- 29.78 in1008.5 mb - 0.00 in0.0 mm 0.26 in6.6 mm
05:52 PM 47.7°F8.7°C 46.6°F8.1°C 96% Calm Calm -- 29.78 in1008.5 mb - 0.00 in0.0 mm 0.26 in6.6 mm
05:57 PM 47.7°F8.7°C 46.9°F8.3°C 97% Calm Calm -- 29.78 in1008.5 mb - 0.00 in0.0 mm 0.26 in6.6 mm
06:02 PM 47.7°F8.7°C 46.9°F8.3°C 97% Calm Calm -- 29.78 in1008.5 mb - 0.00 in0.0 mm 0.26 in6.6 mm
06:07 PM 47.5°F8.6°C 46.8°F8.2°C 97% 0.9 mph SE1.4 kmh SE 2.0 mph3.2 kmh 29.77 in1008.1 mb - 0.00 in0.0 mm 0.26 in6.6 mm
06:12 PM 47.5°F8.6°C 46.8°F8.2°C 97% 2.0 mph ESE3.2 kmh ESE -- 29.77 in1008.1 mb - 0.00 in0.0 mm 0.26 in6.6 mm
06:17 PM 47.5°F8.6°C 46.8°F8.2°C 97% 0.9 mph SE1.4 kmh SE -- 29.77 in1008.1 mb - 0.00 in0.0 mm 0.26 in6.6 mm
06:22 PM 47.5°F8.6°C 46.8°F8.2°C 97% Calm Calm -- 29.77 in1008.1 mb - 0.00 in0.0 mm 0.26 in6.6 mm
06:27 PM 47.5°F8.6°C 46.8°F8.2°C 97% Calm Calm 2.0 mph3.2 kmh 29.77 in1008.1 mb - 0.00 in0.0 mm 0.26 in6.6 mm
06:32 PM 47.5°F8.6°C 46.8°F8.2°C 97% 0.9 mph SE1.4 kmh SE -- 29.77 in1008.1 mb - 0.00 in0.0 mm 0.26 in6.6 mm
06:37 PM 47.5°F8.6°C 46.9°F8.3°C 98% 2.0 mph SSE3.2 kmh SSE 4.0 mph6.4 kmh 29.77 in1008.1 mb - 0.00 in0.0 mm 0.26 in6.6 mm
06:42 PM 47.5°F8.6°C 46.9°F8.3°C 98% 2.9 mph ESE4.7 kmh ESE 8.1 mph13.0 kmh 29.76 in1007.8 mb - 0.00 in0.0 mm 0.26 in6.6 mm
06:47 PM 47.5°F8.6°C 46.9°F8.3°C 98% 4.0 mph SE6.4 kmh SE -- 29.76 in1007.8 mb - 0.00 in0.0 mm 0.26 in6.6 mm
06:52 PM 47.7°F8.7°C 47.1°F8.4°C 98% 4.9 mph SE7.9 kmh SE 4.0 mph6.4 kmh 29.76 in1007.8 mb - 0.00 in0.0 mm 0.26 in6.6 mm
06:57 PM 47.7°F8.7°C 47.1°F8.4°C 98% 6.0 mph SE9.7 kmh SE 8.1 mph13.0 kmh 29.76 in1007.8 mb - 0.00 in0.0 mm 0.26 in6.6 mm
07:02 PM 47.7°F8.7°C 47.1°F8.4°C 98% 6.0 mph SE9.7 kmh SE 6.0 mph9.7 kmh 29.76 in1007.8 mb - 0.00 in0.0 mm 0.26 in6.6 mm
07:07 PM 47.7°F8.7°C 47.1°F8.4°C 98% 6.0 mph ESE9.7 kmh ESE 6.9 mph11.1 kmh 29.76 in1007.8 mb - 0.00 in0.0 mm 0.27 in6.9 mm
07:12 PM 47.8°F8.8°C 47.3°F8.5°C 98% 6.0 mph SE9.7 kmh SE 6.0 mph9.7 kmh 29.76 in1007.8 mb - 0.00 in0.0 mm 0.27 in6.9 mm
07:17 PM 47.8°F8.8°C 46.9°F8.3°C 97% 4.9 mph SE7.9 kmh SE 6.9 mph11.1 kmh 29.75 in1007.5 mb - 0.00 in0.0 mm 0.27 in6.9 mm
07:22 PM 48.0°F8.9°C 47.5°F8.6°C 98% 4.9 mph SE7.9 kmh SE 4.0 mph6.4 kmh 29.75 in1007.5 mb - 0.00 in0.0 mm 0.27 in6.9 mm
07:27 PM 48.2°F9.0°C 47.7°F8.7°C 98% 6.0 mph ESE9.7 kmh ESE 6.9 mph11.1 kmh 29.75 in1007.5 mb - 0.00 in0.0 mm 0.27 in6.9 mm
07:32 PM 48.4°F9.1°C 47.5°F8.6°C 97% 6.0 mph SE9.7 kmh SE 8.1 mph13.0 kmh 29.75 in1007.5 mb - 0.00 in0.0 mm 0.27 in6.9 mm
07:37 PM 48.4°F9.1°C 47.5°F8.6°C 97% 6.0 mph ESE9.7 kmh ESE 2.9 mph4.7 kmh 29.75 in1007.5 mb - 0.00 in0.0 mm 0.27 in6.9 mm
07:42 PM 48.6°F9.2°C 47.7°F8.7°C 97% 4.9 mph SE7.9 kmh SE 6.9 mph11.1 kmh 29.75 in1007.5 mb - 0.00 in0.0 mm 0.27 in6.9 mm
07:47 PM 48.6°F9.2°C 47.7°F8.7°C 97% 4.9 mph E7.9 kmh E 2.9 mph4.7 kmh 29.74 in1007.1 mb - 0.00 in0.0 mm 0.27 in6.9 mm
07:52 PM 48.6°F9.2°C 47.7°F8.7°C 97% 4.9 mph SE7.9 kmh SE 6.9 mph11.1 kmh 29.74 in1007.1 mb - 0.00 in0.0 mm 0.27 in6.9 mm
07:57 PM 48.6°F9.2°C 47.7°F8.7°C 97% 4.9 mph SE7.9 kmh SE 6.0 mph9.7 kmh 29.74 in1007.1 mb - 0.00 in0.0 mm 0.27 in6.9 mm
08:02 PM 48.6°F9.2°C 47.7°F8.7°C 97% 6.0 mph SE9.7 kmh SE 4.0 mph6.4 kmh 29.73 in1006.8 mb - 0.00 in0.0 mm 0.27 in6.9 mm
08:07 PM 48.7°F9.3°C 47.8°F8.8°C 97% 6.0 mph ESE9.7 kmh ESE 8.1 mph13.0 kmh 29.74 in1007.1 mb - 0.00 in0.0 mm 0.27 in6.9 mm
08:12 PM 48.7°F9.3°C 47.8°F8.8°C 97% 6.0 mph SE9.7 kmh SE 4.0 mph6.4 kmh 29.73 in1006.8 mb - 0.00 in0.0 mm 0.27 in6.9 mm
08:17 PM 48.7°F9.3°C 47.8°F8.8°C 97% 6.0 mph E9.7 kmh E 6.0 mph9.7 kmh 29.73 in1006.8 mb - 0.00 in0.0 mm 0.27 in6.9 mm
08:22 PM 48.7°F9.3°C 47.8°F8.8°C 97% 4.9 mph ESE7.9 kmh ESE 4.0 mph6.4 kmh 29.73 in1006.8 mb - 0.00 in0.0 mm 0.27 in6.9 mm
08:27 PM 48.9°F9.4°C 47.8°F8.8°C 96% 4.9 mph SE7.9 kmh SE 6.9 mph11.1 kmh 29.73 in1006.8 mb - 0.00 in0.0 mm 0.27 in6.9 mm
08:32 PM 48.9°F9.4°C 47.8°F8.8°C 96% 4.9 mph SE7.9 kmh SE 2.9 mph4.7 kmh 29.73 in1006.8 mb - 0.00 in0.0 mm 0.27 in6.9 mm
08:37 PM 48.9°F9.4°C 47.8°F8.8°C 96% 6.0 mph SE9.7 kmh SE 2.0 mph3.2 kmh 29.73 in1006.8 mb - 0.00 in0.0 mm 0.27 in6.9 mm
08:42 PM 48.7°F9.3°C 47.7°F8.7°C 96% 4.9 mph ESE7.9 kmh ESE 4.9 mph7.9 kmh 29.73 in1006.8 mb - 0.00 in0.0 mm 0.28 in7.1 mm
08:47 PM 48.7°F9.3°C 47.7°F8.7°C 96% 4.0 mph ESE6.4 kmh ESE 4.9 mph7.9 kmh 29.72 in1006.4 mb - 0.00 in0.0 mm 0.28 in7.1 mm
08:52 PM 48.7°F9.3°C 47.7°F8.7°C 96% 4.0 mph SE6.4 kmh SE 2.0 mph3.2 kmh 29.72 in1006.4 mb - 0.04 in1.0 mm 0.28 in7.1 mm
08:57 PM 48.7°F9.3°C 47.8°F8.8°C 97% 4.9 mph SE7.9 kmh SE 4.0 mph6.4 kmh 29.72 in1006.4 mb - 0.04 in1.0 mm 0.28 in7.1 mm
09:02 PM 48.7°F9.3°C 47.8°F8.8°C 97% 4.0 mph SE6.4 kmh SE 2.0 mph3.2 kmh 29.72 in1006.4 mb - 0.03 in0.8 mm 0.28 in7.1 mm
09:07 PM 48.7°F9.3°C 47.8°F8.8°C 97% 2.9 mph SE4.7 kmh SE 6.9 mph11.1 kmh 29.72 in1006.4 mb - 0.03 in0.8 mm 0.29 in7.4 mm
09:12 PM 48.7°F9.3°C 47.8°F8.8°C 97% 4.0 mph E6.4 kmh E 2.9 mph4.7 kmh 29.72 in1006.4 mb - 0.06 in1.5 mm 0.29 in7.4 mm
09:17 PM 48.7°F9.3°C 47.8°F8.8°C 97% 4.0 mph E6.4 kmh E 2.9 mph4.7 kmh 29.72 in1006.4 mb - 0.15 in3.8 mm 0.30 in7.6 mm
09:22 PM 48.7°F9.3°C 47.8°F8.8°C 97% 4.0 mph SE6.4 kmh SE 6.0 mph9.7 kmh 29.72 in1006.4 mb - 0.14 in3.6 mm 0.31 in7.9 mm
09:27 PM 48.7°F9.3°C 47.8°F8.8°C 97% 4.0 mph SE6.4 kmh SE 2.9 mph4.7 kmh 29.72 in1006.4 mb - 0.22 in5.6 mm 0.33 in8.4 mm
09:32 PM 48.7°F9.3°C 47.8°F8.8°C 97% 4.0 mph SE6.4 kmh SE 4.0 mph6.4 kmh 29.72 in1006.4 mb - 0.27 in6.9 mm 0.35 in8.9 mm
09:37 PM 48.7°F9.3°C 47.8°F8.8°C 97% 4.0 mph E6.4 kmh E 4.0 mph6.4 kmh 29.72 in1006.4 mb - 0.21 in5.3 mm 0.38 in9.7 mm
09:42 PM 48.7°F9.3°C 47.8°F8.8°C 97% 4.9 mph SE7.9 kmh SE 4.9 mph7.9 kmh 29.72 in1006.4 mb - 0.32 in8.1 mm 0.39 in9.9 mm
09:47 PM 48.7°F9.3°C 47.8°F8.8°C 97% 6.0 mph SE9.7 kmh SE 8.9 mph14.3 kmh 29.72 in1006.4 mb - 0.29 in7.4 mm 0.41 in10.4 mm
09:52 PM 48.7°F9.3°C 47.8°F8.8°C 97% 6.0 mph E9.7 kmh E 4.9 mph7.9 kmh 29.72 in1006.4 mb - 0.20 in5.1 mm 0.44 in11.2 mm
09:57 PM 48.7°F9.3°C 47.8°F8.8°C 97% 6.0 mph S9.7 kmh S 6.0 mph9.7 kmh 29.72 in1006.4 mb - 0.39 in9.9 mm 0.45 in11.4 mm
10:02 PM 48.7°F9.3°C 47.8°F8.8°C 97% 6.9 mph ESE11.1 kmh ESE 6.9 mph11.1 kmh 29.71 in1006.1 mb - 0.27 in6.9 mm 0.48 in12.2 mm
10:07 PM 48.9°F9.4°C 48.0°F8.9°C 97% 6.0 mph SSE9.7 kmh SSE 6.0 mph9.7 kmh 29.71 in1006.1 mb - 0.27 in6.9 mm 0.51 in13.0 mm
10:12 PM 48.9°F9.4°C 48.0°F8.9°C 97% 4.9 mph SE7.9 kmh SE 4.0 mph6.4 kmh 29.71 in1006.1 mb - 0.16 in4.1 mm 0.52 in13.2 mm
10:17 PM 48.9°F9.4°C 48.0°F8.9°C 97% 4.0 mph SE6.4 kmh SE 6.0 mph9.7 kmh 29.71 in1006.1 mb - 0.08 in2.0 mm 0.54 in13.7 mm
10:22 PM 49.1°F9.5°C 48.2°F9.0°C 97% 4.9 mph SE7.9 kmh SE 6.0 mph9.7 kmh 29.70 in1005.8 mb - 0.14 in3.6 mm 0.54 in13.7 mm
10:27 PM 49.3°F9.6°C 48.4°F9.1°C 97% 6.9 mph SE11.1 kmh SE 6.0 mph9.7 kmh 29.70 in1005.8 mb - 0.07 in1.8 mm 0.55 in14.0 mm
10:32 PM 49.5°F9.7°C 48.6°F9.2°C 97% 6.0 mph SE9.7 kmh SE 6.9 mph11.1 kmh 29.70 in1005.8 mb - 0.06 in1.5 mm 0.56 in14.2 mm
10:47 PM 49.5°F9.7°C 48.6°F9.2°C 97% 4.9 mph ESE7.9 kmh ESE 2.0 mph3.2 kmh 29.70 in1005.8 mb - 0.06 in1.5 mm 0.57 in14.5 mm
10:52 PM 49.5°F9.7°C 48.6°F9.2°C 97% 4.9 mph ESE7.9 kmh ESE 2.0 mph3.2 kmh 29.70 in1005.8 mb - 0.09 in2.3 mm 0.58 in14.7 mm
10:57 PM 49.5°F9.7°C 48.6°F9.2°C 97% 4.9 mph SE7.9 kmh SE 4.9 mph7.9 kmh 29.69 in1005.4 mb - 0.06 in1.5 mm 0.58 in14.7 mm
11:02 PM 49.5°F9.7°C 48.6°F9.2°C 97% 4.9 mph SE7.9 kmh SE -- 29.69 in1005.4 mb - 0.06 in1.5 mm 0.59 in15.0 mm
11:07 PM 49.6°F9.8°C 48.7°F9.3°C 97% 4.0 mph ESE6.4 kmh ESE 2.0 mph3.2 kmh 29.69 in1005.4 mb - 0.04 in1.0 mm 0.59 in15.0 mm
11:12 PM 49.6°F9.8°C 48.7°F9.3°C 97% 4.0 mph SE6.4 kmh SE 2.0 mph3.2 kmh 29.69 in1005.4 mb - 0.03 in0.8 mm 0.59 in15.0 mm
11:17 PM 49.6°F9.8°C 48.7°F9.3°C 97% 4.0 mph S6.4 kmh S 2.9 mph4.7 kmh 29.68 in1005.1 mb - 0.03 in0.8 mm 0.60 in15.2 mm
11:22 PM 49.6°F9.8°C 48.7°F9.3°C 97% 2.9 mph SE4.7 kmh SE 2.0 mph3.2 kmh 29.69 in1005.4 mb - 0.03 in0.8 mm 0.60 in15.2 mm
11:27 PM 49.6°F9.8°C 48.7°F9.3°C 97% 2.9 mph ESE4.7 kmh ESE 4.9 mph7.9 kmh 29.68 in1005.1 mb - 0.03 in0.8 mm 0.60 in15.2 mm
11:32 PM 49.8°F9.9°C 48.9°F9.4°C 97% 4.9 mph E7.9 kmh E 2.0 mph3.2 kmh 29.68 in1005.1 mb - 0.03 in0.8 mm 0.61 in15.5 mm
11:37 PM 49.8°F9.9°C 48.9°F9.4°C 97% 4.9 mph ESE7.9 kmh ESE 8.9 mph14.3 kmh 29.68 in1005.1 mb - 0.03 in0.8 mm 0.61 in15.5 mm
11:42 PM 50.0°F10.0°C 49.1°F9.5°C 97% 4.9 mph SSE7.9 kmh SSE 6.9 mph11.1 kmh 29.68 in1005.1 mb - 0.00 in0.0 mm 0.61 in15.5 mm
11:47 PM 49.8°F9.9°C 48.9°F9.4°C 97% 4.9 mph SE7.9 kmh SE 4.9 mph7.9 kmh 29.68 in1005.1 mb - 0.00 in0.0 mm 0.61 in15.5 mm
11:52 PM 49.8°F9.9°C 48.9°F9.4°C 97% 4.0 mph ESE6.4 kmh ESE 4.9 mph7.9 kmh 29.68 in1005.1 mb - 0.00 in0.0 mm 0.61 in15.5 mm
11:57 PM 49.8°F9.9°C 48.9°F9.4°C 97% 4.0 mph SE6.4 kmh SE 2.0 mph3.2 kmh 29.67 in1004.7 mb - 0.00 in0.0 mm 0.61 in15.5 mm